Time;durP1;ratioP1;P1;durP2;ratioP2;P2;SDS_P1;SDS_P2;PMS_P1;PMS_P2;Temp;Humidity;BMP_temperature;BMP_pressure;BME280_temperature;BME280_humidity;BME280_pressure;Samples;Min_cycle;Max_cycle;Signal;HPM_P1;HPM_P2
2022/03/17 00:01:43;;;;;;;0.35;0.30;;;9.70;99.90;;;;;;5061024;28;20086;-62
2022/03/17 00:04:09;;;;;;;0.05;0.05;;;9.50;99.90;;;;;;5052045;28;20052;-62
2022/03/17 00:06:35;;;;;;;0.28;0.28;;;9.50;99.90;;;;;;5061616;28;20056;-62
2022/03/17 00:09:01;;;;;;;0.60;0.30;;;10.00;99.90;;;;;;5062167;28;20041;-62
2022/03/17 00:11:28;;;;;;;0.73;0.32;;;9.40;99.90;;;;;;5061043;28;20068;-62
2022/03/17 00:13:54;;;;;;;0.45;0.32;;;9.50;99.90;;;;;;5061705;28;20059;-63
2022/03/17 00:16:20;;;;;;;0.00;0.00;;;9.40;99.90;;;;;;5060381;28;20045;-64
2022/03/17 00:18:46;;;;;;;0.08;0.08;;;9.40;99.90;;;;;;5060880;28;20048;-67
2022/03/17 00:21:12;;;;;;;0.90;0.43;;;9.40;99.90;;;;;;5061073;28;20486;-64
2022/03/17 00:23:37;;;;;;;0.00;0.00;;;9.40;99.90;;;;;;5060023;28;20073;-65
2022/03/17 00:26:03;;;;;;;0.20;0.20;;;9.30;99.90;;;;;;5061158;28;20164;-64
2022/03/17 00:28:29;;;;;;;0.30;0.30;;;9.40;99.90;;;;;;5060717;28;20052;-62
2022/03/17 00:30:56;;;;;;;0.00;0.00;;;9.30;99.90;;;;;;5061656;28;20040;-62
2022/03/17 00:33:22;;;;;;;0.70;0.32;;;9.40;99.90;;;;;;5061607;28;20049;-62
2022/03/17 00:35:47;;;;;;;2.17;0.30;;;9.30;99.90;;;;;;5059658;28;20406;-62
2022/03/17 00:38:15;;;;;;;0.00;0.00;;;9.30;99.90;;;;;;5061876;28;20045;-62
2022/03/17 00:40:43;;;;;;;0.13;0.13;;;9.30;99.90;;;;;;5060000;28;20053;-63
2022/03/17 00:43:11;;;;;;;0.05;0.05;;;9.20;99.90;;;;;;5061895;28;20060;-63
2022/03/17 00:45:38;;;;;;;0.57;0.43;;;9.20;99.90;;;;;;5061738;28;20126;-62
2022/03/17 00:48:04;;;;;;;0.17;0.17;;;9.20;99.90;;;;;;5062156;28;20947;-65
2022/03/17 00:50:30;;;;;;;0.08;0.08;;;9.20;99.90;;;;;;5060910;28;20741;-63
2022/03/17 00:52:56;;;;;;;0.13;0.13;;;9.20;99.90;;;;;;5063607;28;20044;-62
2022/03/17 00:55:22;;;;;;;0.80;0.32;;;9.20;99.90;;;;;;5065741;28;20121;-61
2022/03/17 00:57:48;;;;;;;0.52;0.52;;;9.20;99.90;;;;;;5063481;28;20052;-62
2022/03/17 01:00:14;;;;;;;0.03;0.03;;;9.20;99.90;;;;;;5064358;28;20044;-62
2022/03/17 01:02:41;;;;;;;0.20;0.20;;;9.20;99.90;;;;;;5064503;28;20080;-63
2022/03/17 01:05:08;;;;;;;0.43;0.43;;;9.10;99.90;;;;;;5064683;28;20044;-63
2022/03/17 01:07:34;;;;;;;2.22;0.47;;;9.20;99.90;;;;;;5064151;28;20044;-63
2022/03/17 01:10:00;;;;;;;0.30;0.30;;;9.10;99.90;;;;;;5065818;28;20071;-63
2022/03/17 01:12:25;;;;;;;0.05;0.05;;;9.10;99.90;;;;;;5064499;28;20133;-64
2022/03/17 01:14:51;;;;;;;0.08;0.08;;;9.00;99.90;;;;;;5064614;28;20033;-64
2022/03/17 01:17:17;;;;;;;0.57;0.40;;;9.10;99.90;;;;;;5065100;28;20515;-63
2022/03/17 01:19:42;;;;;;;0.50;0.50;;;9.00;99.90;;;;;;5064282;28;20040;-62
2022/03/17 01:22:08;;;;;;;0.85;0.13;;;9.00;99.90;;;;;;5063873;28;20044;-63
2022/03/17 01:24:33;;;;;;;0.30;0.20;;;9.00;99.90;;;;;;5063972;28;20094;-62
2022/03/17 01:26:59;;;;;;;0.30;0.30;;;9.00;99.90;;;;;;5064802;28;20045;-62
2022/03/17 01:29:26;;;;;;;1.38;1.27;;;9.00;99.90;;;;;;5065297;28;20698;-62
2022/03/17 01:31:52;;;;;;;0.38;0.38;;;9.30;99.90;;;;;;5062988;28;20048;-62
2022/03/17 01:34:18;;;;;;;1.70;0.80;;;9.20;99.90;;;;;;5046022;28;20049;-62
2022/03/17 01:36:44;;;;;;;0.10;0.10;;;9.00;99.90;;;;;;5064647;28;20041;-62
2022/03/17 01:39:09;;;;;;;0.10;0.10;;;9.00;99.90;;;;;;5064828;28;20032;-62
2022/03/17 01:41:35;;;;;;;0.17;0.17;;;9.10;99.90;;;;;;5064101;28;20136;-62
2022/03/17 01:44:01;;;;;;;0.03;0.03;;;9.00;99.90;;;;;;5065004;28;20055;-63
2022/03/17 01:46:27;;;;;;;0.40;0.28;;;9.00;99.90;;;;;;5064861;28;20068;-62
2022/03/17 01:48:53;;;;;;;0.17;0.13;;;9.00;99.90;;;;;;5063348;28;20049;-63
2022/03/17 01:51:18;;;;;;;0.70;0.32;;;10.10;99.90;;;;;;5064424;28;20084;-64
2022/03/17 01:53:44;;;;;;;1.60;0.88;;;9.00;99.90;;;;;;5064326;28;20499;-63
2022/03/17 01:56:10;;;;;;;0.17;0.17;;;9.00;99.90;;;;;;5064662;28;20045;-63
2022/03/17 01:58:36;;;;;;;0.32;0.32;;;9.00;99.90;;;;;;5063868;28;20052;-63
2022/03/17 02:01:02;;;;;;;0.10;0.10;;;9.00;99.90;;;;;;5062502;28;20074;-62
2022/03/17 02:03:28;;;;;;;0.00;0.00;;;9.00;99.90;;;;;;5052721;28;20060;-64
2022/03/17 02:05:54;;;;;;;0.45;0.45;;;9.00;99.90;;;;;;5043697;28;20041;-62
2022/03/17 02:08:20;;;;;;;0.00;0.00;;;9.00;99.90;;;;;;5026033;28;20052;-62
2022/03/17 02:13:30;;;;;;;0.07;0.07;;;9.00;99.90;;;;;;5044112;28;20041;-62
2022/03/17 02:15:56;;;;;;;0.00;0.00;;;9.10;99.90;;;;;;5043605;28;20106;-62
2022/03/17 02:18:22;;;;;;;0.20;0.20;;;9.10;99.90;;;;;;5043445;28;20044;-62
2022/03/17 02:20:49;;;;;;;0.70;0.30;;;9.10;99.90;;;;;;5043503;28;20094;-62
2022/03/17 02:26:04;;;;;;;0.08;0.08;;;9.10;99.90;;;;;;5043825;28;20048;-62
2022/03/17 02:28:32;;;;;;;0.10;0.10;;;9.10;99.90;;;;;;5025711;28;20049;-62
2022/03/17 02:30:59;;;;;;;0.00;0.00;;;9.10;99.90;;;;;;5043446;28;20630;-62
2022/03/17 02:33:26;;;;;;;0.45;0.25;;;9.30;99.90;;;;;;5025488;28;20067;-62
2022/03/17 02:35:53;;;;;;;0.22;0.22;;;9.20;99.90;;;;;;5043537;28;20052;-62
2022/03/17 02:38:21;;;;;;;0.95;0.32;;;10.00;99.90;;;;;;5043480;28;20045;-62
2022/03/17 02:40:50;;;;;;;1.48;1.17;;;9.30;99.90;;;;;;5043120;28;20472;-62
2022/03/17 02:43:16;;;;;;;0.08;0.08;;;9.30;99.90;;;;;;5043598;28;20194;-62
2022/03/17 02:45:43;;;;;;;0.20;0.20;;;9.30;99.90;;;;;;5043050;28;20124;-62
2022/03/17 02:48:10;;;;;;;0.00;0.00;;;9.30;99.90;;;;;;5042800;28;20049;-62
2022/03/17 02:50:36;;;;;;;1.33;0.68;;;9.40;99.90;;;;;;5043457;28;20041;-62
2022/03/17 02:53:08;;;;;;;0.32;0.20;;;9.50;99.90;;;;;;5043238;28;20059;-62
2022/03/17 02:55:36;;;;;;;1.23;0.65;;;9.50;99.90;;;;;;5043714;28;20450;-62
2022/03/17 02:58:03;;;;;;;1.50;1.05;;;9.50;99.90;;;;;;5043760;28;20041;-62
2022/03/17 03:00:28;;;;;;;5.57;0.32;;;9.60;99.90;;;;;;5042679;28;20098;-63
2022/03/17 03:02:54;;;;;;;0.55;0.55;;;9.50;99.90;;;;;;5053787;28;20381;-62
2022/03/17 03:05:21;;;;;;;0.40;0.40;;;9.50;99.90;;;;;;5041165;28;20045;-62
2022/03/17 03:07:47;;;;;;;0.05;0.05;;;9.60;99.90;;;;;;5041542;28;20483;-62
2022/03/17 03:10:13;;;;;;;0.75;0.75;;;9.60;99.90;;;;;;5042672;28;20055;-62
2022/03/17 03:12:40;;;;;;;0.25;0.10;;;9.60;99.90;;;;;;5042764;28;20041;-62
2022/03/17 03:15:06;;;;;;;0.70;0.70;;;9.60;99.90;;;;;;5042730;28;20048;-63
2022/03/17 03:17:32;;;;;;;0.68;0.50;;;9.50;99.90;;;;;;5042086;28;20128;-62
2022/03/17 03:19:58;;;;;;;1.27;0.73;;;9.50;99.90;;;;;;5041712;28;20075;-62
2022/03/17 03:22:28;;;;;;;1.42;0.28;;;9.50;99.90;;;;;;5043123;28;20041;-62
2022/03/17 03:24:55;;;;;;;0.43;0.38;;;9.80;99.90;;;;;;5042179;28;20045;-62
2022/03/17 03:27:21;;;;;;;0.38;0.38;;;9.50;99.90;;;;;;5042389;28;20095;-62
2022/03/17 03:29:47;;;;;;;0.20;0.20;;;9.50;99.90;;;;;;5024686;28;20045;-62
2022/03/17 03:32:12;;;;;;;0.35;0.35;;;9.50;99.90;;;;;;5042903;28;20098;-62
2022/03/17 03:34:38;;;;;;;2.25;1.00;;;9.50;99.90;;;;;;5040229;28;20044;-62
2022/03/17 03:37:23;;;;;;;0.38;0.30;;;10.00;99.90;;;;;;5042971;28;20103;-62
2022/03/17 03:39:50;;;;;;;0.03;0.00;;;9.50;99.90;;;;;;5042241;28;20178;-62
2022/03/17 03:42:16;;;;;;;0.20;0.20;;;9.40;99.90;;;;;;5041950;28;20816;-62
2022/03/17 03:44:41;;;;;;;1.05;0.43;;;9.60;99.90;;;;;;5041993;28;20045;-62
2022/03/17 03:47:07;;;;;;;0.40;0.40;;;9.50;99.90;;;;;;5042696;28;20183;-62
2022/03/17 03:49:38;;;;;;;4.70;0.47;;;9.50;99.90;;;;;;5040717;28;20048;-63
2022/03/17 03:52:04;;;;;;;0.17;0.17;;;9.40;99.90;;;;;;5042466;28;20053;-62
2022/03/17 03:54:29;;;;;;;0.43;0.40;;;9.50;99.90;;;;;;5024628;28;20067;-62
2022/03/17 03:56:56;;;;;;;0.45;0.28;;;9.50;99.90;;;;;;5041952;28;20123;-62
2022/03/17 03:59:24;;;;;;;1.20;1.10;;;9.50;99.90;;;;;;5042159;28;20041;-62
2022/03/17 04:01:55;;;;;;;0.70;0.55;;;9.40;99.90;;;;;;5045360;28;20052;-62
2022/03/17 04:04:22;;;;;;;0.55;0.38;;;9.50;99.90;;;;;;5047873;28;20076;-62
2022/03/17 04:06:49;;;;;;;0.52;0.52;;;9.80;99.90;;;;;;5041431;28;20064;-62
2022/03/17 04:09:18;;;;;;;0.85;0.63;;;9.50;99.90;;;;;;5042194;28;20045;-62
2022/03/17 04:11:44;;;;;;;0.47;0.30;;;10.00;99.90;;;;;;5041799;28;20171;-63
2022/03/17 04:14:11;;;;;;;0.10;0.10;;;9.50;99.90;;;;;;5041699;28;20871;-63
2022/03/17 04:16:38;;;;;;;0.85;0.40;;;9.50;99.90;;;;;;5041866;28;20128;-63
2022/03/17 04:19:04;;;;;;;0.57;0.52;;;9.50;99.90;;;;;;5041895;28;20435;-62
2022/03/17 04:21:30;;;;;;;0.10;0.10;;;9.50;99.90;;;;;;5042634;28;20044;-63
2022/03/17 04:23:57;;;;;;;0.65;0.57;;;9.60;99.90;;;;;;5041316;28;20384;-63
2022/03/17 04:26:23;;;;;;;0.45;0.43;;;9.60;99.90;;;;;;5024336;28;20052;-63
2022/03/17 04:28:48;;;;;;;2.70;1.30;;;9.50;99.90;;;;;;5026980;28;20045;-63
2022/03/17 04:31:14;;;;;;;0.10;0.10;;;9.60;99.90;;;;;;5045670;28;20407;-63
2022/03/17 04:33:40;;;;;;;2.17;0.55;;;9.60;99.90;;;;;;5027327;28;20044;-63
2022/03/17 04:36:07;;;;;;;0.90;0.85;;;9.60;99.90;;;;;;5045936;28;20045;-63
2022/03/17 04:38:33;;;;;;;1.08;0.85;;;9.60;99.90;;;;;;5046379;28;20087;-63
2022/03/17 04:40:59;;;;;;;4.05;0.60;;;9.70;99.90;;;;;;5045005;28;20049;-61
2022/03/17 04:43:25;;;;;;;0.03;0.03;;;9.70;99.90;;;;;;5045853;28;20056;-62
2022/03/17 04:45:51;;;;;;;0.93;0.52;;;9.70;99.90;;;;;;5045499;28;20080;-61
2022/03/17 04:48:16;;;;;;;1.65;1.13;;;9.80;99.90;;;;;;5026772;28;20044;-61
2022/03/17 04:50:42;;;;;;;1.33;0.95;;;9.80;99.90;;;;;;5045344;28;20546;-61
2022/03/17 04:53:27;;;;;;;0.30;0.22;;;9.90;99.90;;;;;;5045790;28;20075;-62
2022/03/17 04:55:54;;;;;;;0.20;0.20;;;9.90;99.90;;;;;;5044869;28;20051;-61
2022/03/17 04:58:19;;;;;;;0.57;0.57;;;10.20;99.90;;;;;;5046030;28;20044;-62
2022/03/17 05:00:46;;;;;;;1.30;0.55;;;9.80;99.90;;;;;;5045044;28;20618;-64
2022/03/17 05:03:12;;;;;;;0.40;0.17;;;9.90;99.90;;;;;;5054966;28;20063;-64
2022/03/17 05:05:37;;;;;;;0.55;0.10;;;9.90;99.90;;;;;;5045507;28;20128;-64
2022/03/17 05:08:06;;;;;;;0.10;0.10;;;9.90;99.90;;;;;;5045773;28;20153;-64
2022/03/17 05:10:35;;;;;;;1.05;0.55;;;9.90;99.90;;;;;;5045711;28;20045;-65
2022/03/17 05:13:05;;;;;;;0.73;0.73;;;9.90;99.90;;;;;;5027293;28;20400;-63
2022/03/17 05:15:31;;;;;;;0.63;0.47;;;9.90;99.90;;;;;;5027667;28;20045;-64
2022/03/17 05:17:57;;;;;;;0.88;0.70;;;10.10;99.90;;;;;;5044041;28;20144;-63
2022/03/17 05:20:23;;;;;;;1.58;1.45;;;10.10;99.90;;;;;;5044670;28;20044;-63
2022/03/17 05:22:48;;;;;;;0.85;0.65;;;9.70;99.90;;;;;;5044865;28;20048;-63
2022/03/17 05:25:14;;;;;;;0.38;0.38;;;9.50;99.90;;;;;;5045258;28;20116;-63
2022/03/17 05:27:42;;;;;;;1.65;1.27;;;9.30;99.90;;;;;;5044497;28;20123;-63
2022/03/17 05:30:16;;;;;;;0.80;0.30;;;9.30;99.90;;;;;;5045548;28;20084;-62
2022/03/17 05:32:46;;;;;;;0.50;0.50;;;9.10;99.90;;;;;;5043896;28;20586;-61
2022/03/17 05:35:13;;;;;;;0.47;0.43;;;9.00;99.90;;;;;;5044614;28;20045;-61
2022/03/17 05:37:39;;;;;;;0.30;0.30;;;8.90;99.90;;;;;;5026833;28;20056;-61
2022/03/17 05:40:13;;;;;;;3.53;0.65;;;8.90;99.90;;;;;;5043451;28;20227;-61
2022/03/17 05:42:40;;;;;;;1.33;0.60;;;8.80;99.90;;;;;;5044404;28;20120;-61
2022/03/17 05:45:06;;;;;;;1.10;0.70;;;8.70;99.90;;;;;;5045220;28;20103;-61
2022/03/17 05:47:40;;;;;;;1.08;0.57;;;8.70;99.90;;;;;;5043849;28;20037;-61
2022/03/17 05:50:09;;;;;;;0.30;0.30;;;8.70;99.90;;;;;;5026506;28;20045;-62
2022/03/17 05:52:39;;;;;;;0.93;0.57;;;8.70;99.90;;;;;;5044631;28;20054;-62
2022/03/17 05:55:09;;;;;;;1.05;0.38;;;8.60;99.90;;;;;;5044786;28;20049;-61
2022/03/17 05:57:36;;;;;;;2.30;0.63;;;8.60;99.90;;;;;;5044237;28;20419;-62
2022/03/17 06:00:05;;;;;;;0.10;0.05;;;8.60;99.90;;;;;;5026767;28;20096;-62
2022/03/17 06:02:31;;;;;;;0.30;0.28;;;8.60;99.90;;;;;;5032751;28;20896;-61
2022/03/17 06:04:57;;;;;;;0.00;0.00;;;8.70;99.90;;;;;;5044008;28;20057;-62
2022/03/17 06:07:23;;;;;;;1.50;1.40;;;9.70;99.90;;;;;;5044076;28;20095;-61
2022/03/17 06:09:48;;;;;;;0.68;0.60;;;8.60;99.90;;;;;;5043914;28;20048;-61
2022/03/17 06:12:15;;;;;;;0.57;0.30;;;8.60;99.90;;;;;;5026679;28;20056;-61
2022/03/17 06:14:41;;;;;;;0.05;0.05;;;8.30;99.90;;;;;;5043974;28;20049;-62
2022/03/17 06:17:07;;;;;;;0.10;0.10;;;8.20;99.90;;;;;;5044528;28;20048;-61
2022/03/17 06:19:32;;;;;;;0.88;0.20;;;8.70;99.90;;;;;;5044045;28;20484;-61
2022/03/17 06:21:58;;;;;;;0.00;0.00;;;7.90;99.90;;;;;;5043646;28;20120;-61
2022/03/17 06:24:25;;;;;;;0.13;0.13;;;7.90;99.90;;;;;;5043753;28;20563;-61
2022/03/17 06:26:51;;;;;;;0.00;0.00;;;7.80;99.90;;;;;;5044024;28;20048;-60
2022/03/17 06:29:16;;;;;;;0.00;0.00;;;8.90;99.90;;;;;;5044207;28;20048;-61
2022/03/17 06:31:42;;;;;;;0.10;0.10;;;7.90;99.90;;;;;;5043385;28;20094;-61
2022/03/17 06:34:08;;;;;;;0.10;0.10;;;7.70;99.90;;;;;;5043443;28;20041;-61
2022/03/17 06:36:34;;;;;;;0.00;0.00;;;7.70;99.90;;;;;;5026426;28;20084;-62
2022/03/17 06:39:00;;;;;;;0.00;0.00;;;7.70;99.90;;;;;;5044156;28;20048;-62
2022/03/17 06:41:25;;;;;;;0.10;0.10;;;7.90;99.90;;;;;;5043628;28;20083;-62
2022/03/17 06:43:51;;;;;;;0.10;0.10;;;7.70;99.90;;;;;;5043414;28;20061;-62
2022/03/17 06:46:16;;;;;;;0.10;0.10;;;8.10;99.90;;;;;;5043874;28;20044;-61
2022/03/17 06:48:42;;;;;;;0.10;0.10;;;7.60;99.90;;;;;;5024626;28;20049;-63
2022/03/17 06:51:08;;;;;;;0.00;0.00;;;7.60;99.90;;;;;;5025110;28;20079;-63
2022/03/17 06:53:33;;;;;;;0.00;0.00;;;7.60;99.90;;;;;;5044040;28;20045;-61
2022/03/17 06:55:59;;;;;;;0.00;0.00;;;8.70;99.90;;;;;;5043318;28;20037;-62
2022/03/17 06:58:24;;;;;;;0.00;0.00;;;7.60;99.90;;;;;;5043125;28;20488;-62
2022/03/17 07:00:50;;;;;;;0.00;0.00;;;7.60;99.90;;;;;;5043262;28;20464;-62
2022/03/17 07:03:16;;;;;;;0.00;0.00;;;7.60;99.90;;;;;;5053555;28;20057;-62
2022/03/17 07:05:41;;;;;;;0.00;0.00;;;7.70;99.90;;;;;;5025484;28;20598;-63
2022/03/17 07:08:07;;;;;;;0.00;0.00;;;7.60;99.90;;;;;;5042905;28;20136;-64
2022/03/17 07:10:33;;;;;;;0.00;0.00;;;7.80;99.90;;;;;;5043466;28;20033;-62
2022/03/17 07:12:58;;;;;;;0.10;0.10;;;7.60;99.90;;;;;;5042849;28;20059;-60
2022/03/17 07:15:24;;;;;;;0.20;0.10;;;7.60;99.90;;;;;;5043589;28;20040;-62
2022/03/17 07:17:50;;;;;;;0.00;0.00;;;7.60;99.90;;;;;;5041789;28;20127;-62
2022/03/17 07:20:19;;;;;;;0.80;0.17;;;7.60;99.90;;;;;;5043121;28;20041;-61
2022/03/17 07:22:50;;;;;;;0.00;0.00;;;7.50;99.90;;;;;;5042807;28;20083;-63
2022/03/17 07:25:17;;;;;;;0.10;0.10;;;7.50;99.90;;;;;;5042668;28;20053;-62
2022/03/17 07:27:45;;;;;;;0.00;0.00;;;7.40;99.90;;;;;;5042637;28;20077;-61
2022/03/17 07:30:18;;;;;;;0.00;0.00;;;7.60;99.90;;;;;;5043130;28;20079;-63
2022/03/17 07:32:46;;;;;;;0.00;0.00;;;7.60;99.90;;;;;;5041155;28;20500;-61
2022/03/17 07:35:12;;;;;;;0.00;0.00;;;7.40;99.90;;;;;;5043135;28;20059;-62
2022/03/17 07:37:38;;;;;;;0.00;0.00;;;7.40;99.90;;;;;;5025032;28;20399;-62
2022/03/17 07:40:05;;;;;;;0.00;0.00;;;7.40;99.90;;;;;;5042535;28;20361;-62
2022/03/17 07:42:31;;;;;;;0.20;0.20;;;7.40;99.90;;;;;;5043191;28;20051;-62
2022/03/17 07:44:56;;;;;;;0.00;0.00;;;7.50;99.90;;;;;;5042414;28;20700;-63
2022/03/17 07:47:22;;;;;;;0.00;0.00;;;7.40;99.90;;;;;;5042070;28;20076;-61
2022/03/17 07:49:48;;;;;;;0.00;0.00;;;7.50;99.90;;;;;;5041676;28;20079;-62
2022/03/17 07:52:13;;;;;;;0.00;0.00;;;7.50;99.90;;;;;;5042785;28;20056;-62
2022/03/17 07:54:39;;;;;;;0.00;0.00;;;7.60;99.90;;;;;;5042449;28;20091;-62
2022/03/17 07:57:06;;;;;;;0.00;0.00;;;7.60;99.90;;;;;;5041955;28;20048;-64
2022/03/17 07:59:32;;;;;;;0.00;0.00;;;8.90;99.90;;;;;;5025152;28;20049;-62
2022/03/17 08:01:58;;;;;;;0.00;0.00;;;8.00;99.90;;;;;;5046190;28;20102;-62
2022/03/17 08:04:24;;;;;;;0.00;0.00;;;7.50;99.90;;;;;;5047691;28;20064;-63
2022/03/17 08:06:53;;;;;;;0.00;0.00;;;8.10;99.90;;;;;;5041647;28;20095;-63
2022/03/17 08:09:19;;;;;;;0.00;0.00;;;7.60;99.90;;;;;;5042501;28;20048;-62
2022/03/17 08:11:48;;;;;;;0.00;0.00;;;7.50;99.90;;;;;;5042097;28;20479;-62
2022/03/17 08:14:16;;;;;;;0.00;0.00;;;7.60;99.90;;;;;;5041999;28;20047;-61
2022/03/17 08:16:45;;;;;;;0.00;0.00;;;7.50;99.90;;;;;;5042171;28;20047;-62
2022/03/17 08:19:11;;;;;;;0.00;0.00;;;7.40;99.90;;;;;;5041795;28;20080;-62
2022/03/17 08:21:37;;;;;;;0.00;0.00;;;7.50;99.90;;;;;;5041723;28;20041;-62
2022/03/17 08:24:03;;;;;;;0.00;0.00;;;7.50;99.90;;;;;;5042663;28;20088;-62
2022/03/17 08:26:29;;;;;;;0.00;0.00;;;7.40;99.90;;;;;;5040976;28;20535;-62
2022/03/17 08:28:55;;;;;;;0.00;0.00;;;7.40;99.90;;;;;;5023760;28;20059;-62
2022/03/17 08:31:20;;;;;;;0.00;0.00;;;7.40;99.90;;;;;;5041774;28;20045;-62
2022/03/17 08:33:46;;;;;;;0.00;0.00;;;8.10;99.90;;;;;;5039725;28;20072;-62
2022/03/17 08:36:11;;;;;;;0.00;0.00;;;7.30;99.90;;;;;;5042417;28;20037;-62
2022/03/17 08:38:37;;;;;;;0.00;0.00;;;7.30;99.90;;;;;;5042124;28;20079;-62
2022/03/17 08:41:02;;;;;;;0.00;0.00;;;7.30;99.90;;;;;;5040289;28;20051;-63
2022/03/17 08:43:28;;;;;;;0.00;0.00;;;7.30;99.90;;;;;;5041953;28;20064;-62
2022/03/17 08:51:26;;;;;;;0.00;0.00;;;7.50;99.90;;;;;;5042050;28;20110;-62
2022/03/17 08:53:52;;;;;;;0.05;0.05;;;7.30;99.90;;;;;;5041051;28;20045;-62
2022/03/17 08:56:18;;;;;;;0.00;0.00;;;7.30;99.90;;;;;;5042256;28;20117;-63
2022/03/17 08:58:43;;;;;;;0.00;0.00;;;7.30;99.90;;;;;;5041511;28;20097;-62
2022/03/17 09:01:10;;;;;;;0.00;0.00;;;7.40;99.90;;;;;;5043968;28;20080;-63
2022/03/17 09:03:36;;;;;;;0.00;0.00;;;7.40;99.90;;;;;;5031709;28;20096;-63
2022/03/17 09:06:02;;;;;;;0.00;0.00;;;7.40;99.90;;;;;;5042100;28;20088;-63
2022/03/17 09:08:28;;;;;;;0.00;0.00;;;7.40;99.90;;;;;;5041684;28;20072;-63
2022/03/17 09:10:55;;;;;;;0.00;0.00;;;7.50;99.90;;;;;;5044125;28;20039;-63
2022/03/17 09:13:25;;;;;;;0.00;0.00;;;7.50;99.90;;;;;;5061207;28;20051;-62
2022/03/17 09:15:53;;;;;;;0.03;0.03;;;7.50;99.90;;;;;;5049847;28;20532;-63
2022/03/17 09:18:21;;;;;;;0.00;0.00;;;7.50;99.90;;;;;;5044021;28;20087;-63
2022/03/17 09:20:48;;;;;;;0.00;0.00;;;7.50;99.90;;;;;;5044871;28;20045;-62
2022/03/17 09:23:14;;;;;;;0.00;0.00;;;7.50;99.90;;;;;;5045151;28;20087;-63
2022/03/17 09:25:40;;;;;;;0.00;0.00;;;7.40;99.90;;;;;;5044747;28;20041;-62
2022/03/17 09:28:06;;;;;;;0.00;0.00;;;7.50;99.90;;;;;;5045136;28;20044;-62
2022/03/17 09:30:33;;;;;;;0.00;0.00;;;7.70;99.90;;;;;;5065405;28;20528;-63
2022/03/17 09:33:03;;;;;;;0.00;0.00;;;7.40;99.90;;;;;;5063979;28;20203;-63
2022/03/17 09:35:28;;;;;;;0.00;0.00;;;7.70;99.90;;;;;;5064397;28;20048;-63
2022/03/17 09:37:54;;;;;;;0.00;0.00;;;7.40;99.90;;;;;;5046391;28;20040;-63
2022/03/17 09:40:20;;;;;;;0.00;0.00;;;7.40;99.90;;;;;;5064981;28;20135;-64
2022/03/17 09:42:46;;;;;;;0.00;0.00;;;7.40;99.90;;;;;;5064346;28;20404;-64
2022/03/17 09:45:12;;;;;;;0.00;0.00;;;7.50;99.90;;;;;;5046081;28;20052;-63
2022/03/17 09:47:43;;;;;;;0.00;0.00;;;7.80;99.90;;;;;;5045640;28;20124;-63
2022/03/17 09:50:14;;;;;;;0.00;0.00;;;7.70;99.90;;;;;;5025782;28;20026;-63
2022/03/17 09:52:41;;;;;;;0.00;0.00;;;7.80;99.90;;;;;;5043668;28;20052;-61
2022/03/17 09:55:11;;;;;;;0.00;0.00;;;7.80;99.90;;;;;;5044563;28;20381;-62
2022/03/17 09:57:40;;;;;;;0.00;0.00;;;7.80;99.90;;;;;;5044579;28;20059;-63
2022/03/17 10:00:09;;;;;;;0.00;0.00;;;7.70;99.90;;;;;;5026093;28;20323;-64
2022/03/17 10:02:35;;;;;;;0.00;0.00;;;7.70;99.90;;;;;;5041738;28;20041;-62
2022/03/17 10:05:01;;;;;;;0.00;0.00;;;7.70;99.90;;;;;;5045665;28;20049;-62
2022/03/17 10:07:27;;;;;;;0.00;0.00;;;7.70;99.90;;;;;;5044161;28;20041;-64
2022/03/17 10:09:52;;;;;;;0.00;0.00;;;7.70;99.90;;;;;;5044064;28;20059;-60
2022/03/17 10:12:23;;;;;;;0.00;0.00;;;7.70;99.90;;;;;;5043491;28;20045;-61
2022/03/17 10:14:53;;;;;;;0.00;0.00;;;7.80;99.90;;;;;;5044242;28;20132;-60
2022/03/17 10:17:38;;;;;;;0.00;0.00;;;7.70;99.90;;;;;;5043712;28;20076;-62
2022/03/17 10:20:15;;;;;;;0.00;0.00;;;7.70;99.90;;;;;;5044519;28;20087;-60
2022/03/17 10:22:42;;;;;;;0.00;0.00;;;7.70;99.90;;;;;;5044383;28;20049;-63
2022/03/17 10:25:08;;;;;;;0.00;0.00;;;7.80;99.90;;;;;;5043705;28;20128;-61
2022/03/17 10:27:38;;;;;;;0.00;0.00;;;7.90;99.90;;;;;;5044492;28;20053;-62
2022/03/17 10:30:07;;;;;;;0.00;0.00;;;8.40;99.90;;;;;;5044478;28;20627;-61
2022/03/17 10:32:33;;;;;;;0.00;0.00;;;8.20;99.90;;;;;;5043868;28;20411;-60
2022/03/17 10:34:59;;;;;;;0.00;0.00;;;8.30;99.90;;;;;;5025924;28;20645;-60
2022/03/17 10:37:26;;;;;;;0.00;0.00;;;8.30;99.90;;;;;;5043571;28;20059;-61
2022/03/17 10:39:54;;;;;;;0.00;0.00;;;8.70;99.90;;;;;;5043559;28;20037;-61
2022/03/17 10:42:27;;;;;;;0.00;0.00;;;8.90;99.90;;;;;;5042858;28;20052;-61
2022/03/17 10:45:03;;;;;;;0.00;0.00;;;9.60;99.90;;;;;;5043115;28;20052;-62
2022/03/17 10:47:40;;;;;;;0.00;0.00;;;9.50;99.90;;;;;;5043412;28;20507;-60
2022/03/17 10:50:18;;;;;;;0.00;0.00;;;9.50;99.90;;;;;;5043100;28;20183;-60
2022/03/17 10:53:00;;;;;;;0.15;0.15;;;9.50;99.90;;;;;;5043208;28;20048;-64
2022/03/17 10:55:31;;;;;;;0.00;0.00;;;9.30;99.90;;;;;;5042114;28;20114;-62
2022/03/17 10:58:09;;;;;;;0.00;0.00;;;9.30;99.90;;;;;;5043340;28;20076;-62
2022/03/17 11:00:51;;;;;;;0.00;0.00;;;9.30;99.90;;;;;;5043125;28;20053;-61
2022/03/17 11:03:18;;;;;;;0.00;0.00;;;9.30;99.90;;;;;;5047039;28;20407;-61
2022/03/17 11:05:45;;;;;;;0.00;0.00;;;9.20;99.90;;;;;;5061610;28;20052;-61
2022/03/17 11:08:11;;;;;;;0.00;0.00;;;9.40;99.90;;;;;;5045303;28;20118;-61
2022/03/17 11:10:40;;;;;;;0.00;0.00;;;9.50;99.90;;;;;;5044911;28;20048;-61
2022/03/17 11:13:11;;;;;;;0.00;0.00;;;9.60;99.90;;;;;;5062092;28;20052;-62
2022/03/17 11:15:45;;;;;;;0.00;0.00;;;10.00;99.90;;;;;;5045361;28;20086;-60
2022/03/17 11:18:16;;;;;;;0.00;0.00;;;10.00;99.90;;;;;;5062763;28;20044;-59
2022/03/17 11:20:41;;;;;;;0.00;0.00;;;10.40;99.90;;;;;;5062985;28;20036;-61
2022/03/17 11:23:09;;;;;;;0.00;0.00;;;9.60;99.90;;;;;;5062997;28;20040;-60
2022/03/17 11:25:35;;;;;;;0.00;0.00;;;9.90;99.90;;;;;;5063125;28;20449;-60
2022/03/17 11:28:03;;;;;;;0.00;0.00;;;10.40;99.90;;;;;;5062985;28;20055;-63
2022/03/17 11:30:45;;;;;;;1.67;0.22;;;11.40;99.90;;;;;;5063412;28;20045;-61
2022/03/17 11:33:37;;;;;;;0.00;0.00;;;10.90;99.90;;;;;;5062183;28;20036;-61
2022/03/17 11:36:09;;;;;;;0.08;0.08;;;11.00;99.90;;;;;;5044353;28;20063;-61
2022/03/17 11:38:39;;;;;;;0.00;0.00;;;10.90;99.90;;;;;;5062505;28;20086;-62
2022/03/17 11:41:11;;;;;;;0.00;0.00;;;11.10;99.90;;;;;;5061348;28;20076;-61
2022/03/17 11:43:57;;;;;;;0.00;0.00;;;11.50;99.90;;;;;;5062137;28;20044;-61
2022/03/17 11:46:34;;;;;;;0.00;0.00;;;11.70;99.90;;;;;;5062439;28;20477;-62
2022/03/17 11:49:26;;;;;;;0.00;0.00;;;11.80;99.90;;;;;;5061801;28;20147;-60
2022/03/17 11:51:56;;;;;;;0.00;0.00;;;12.00;99.90;;;;;;5062362;28;20040;-62
2022/03/17 11:54:21;;;;;;;0.00;0.00;;;11.80;99.90;;;;;;5062097;28;20044;-62
2022/03/17 11:56:53;;;;;;;0.00;0.00;;;11.50;99.90;;;;;;5062033;28;20094;-62
2022/03/17 11:59:23;;;;;;;0.00;0.00;;;11.40;99.90;;;;;;5062441;28;20049;-62
2022/03/17 12:01:49;;;;;;;0.00;0.00;;;11.60;99.90;;;;;;5054360;28;20052;-62
2022/03/17 12:04:34;;;;;;;0.00;0.00;;;11.50;99.90;;;;;;5049653;28;20044;-62
2022/03/17 12:07:13;;;;;;;0.00;0.00;;;11.70;99.90;;;;;;5041991;28;20041;-62
2022/03/17 12:09:39;;;;;;;0.00;0.00;;;11.80;99.90;;;;;;5007845;28;20056;-62
2022/03/17 12:12:29;;;;;;;0.00;0.00;;;11.80;99.90;;;;;;5042258;28;20067;-61
2022/03/17 12:14:58;;;;;;;0.00;0.00;;;11.80;99.90;;;;;;5041887;28;20119;-62
2022/03/17 12:17:26;;;;;;;0.00;0.00;;;11.60;99.90;;;;;;5023712;28;20041;-62
2022/03/17 12:20:14;;;;;;;0.00;0.00;;;11.10;99.90;;;;;;5040376;28;20801;-62
2022/03/17 12:22:44;;;;;;;0.00;0.00;;;11.10;99.90;;;;;;5041810;28;20041;-62
2022/03/17 12:25:20;;;;;;;0.00;0.00;;;11.60;99.90;;;;;;5024297;28;20080;-62
2022/03/17 12:27:55;;;;;;;0.00;0.00;;;11.70;99.90;;;;;;5041933;28;20044;-62
2022/03/17 12:30:24;;;;;;;0.00;0.00;;;12.20;99.90;;;;;;5042201;28;20715;-62
2022/03/17 12:32:52;;;;;;;0.00;0.00;;;12.00;99.90;;;;;;5040735;28;20084;-61
2022/03/17 12:35:20;;;;;;;0.00;0.00;;;12.00;99.90;;;;;;5024611;28;20041;-62
2022/03/17 12:37:45;;;;;;;0.00;0.00;;;11.70;99.90;;;;;;5040390;28;20140;-63
2022/03/17 12:40:19;;;;;;;0.00;0.00;;;11.70;99.90;;;;;;5040608;28;20168;-61
2022/03/17 12:42:50;;;;;;;0.43;0.43;;;11.60;99.90;;;;;;5041519;28;20053;-61
2022/03/17 12:45:18;;;;;;;0.00;0.00;;;11.60;99.90;;;;;;5041823;28;20392;-62
2022/03/17 12:47:47;;;;;;;0.00;0.00;;;11.90;99.90;;;;;;5040171;28;20405;-61
2022/03/17 12:50:18;;;;;;;0.00;0.00;;;11.70;99.90;;;;;;5028001;28;20138;-62
2022/03/17 12:52:46;;;;;;;0.00;0.00;;;11.80;99.90;;;;;;5044415;28;20051;-62
2022/03/17 12:55:14;;;;;;;0.00;0.00;;;11.90;99.90;;;;;;5044855;28;20037;-63
2022/03/17 12:57:40;;;;;;;0.00;0.00;;;11.90;99.90;;;;;;5010425;28;20079;-63
2022/03/17 13:00:23;;;;;;;0.00;0.00;;;12.00;99.90;;;;;;5045921;28;20829;-63
2022/03/17 13:02:54;;;;;;;0.00;0.00;;;12.20;99.90;;;;;;5044058;28;20056;-63
2022/03/17 13:08:06;;;;;;;0.00;0.00;;;12.20;99.90;;;;;;5045550;28;20057;-63
2022/03/17 13:16:04;;;;;;;0.00;0.00;;;12.00;99.90;;;;;;5045892;28;20072;-62
2022/03/17 13:18:40;;;;;;;0.00;0.00;;;12.30;99.90;;;;;;5026825;28;20103;-63